createdAt,value
2019-01-08T00:01:07.299Z,71.03
2019-01-08T00:03:37.849Z,75.93
2019-01-08T00:06:08.449Z,78.23
2019-01-08T00:08:39.140Z,83.57
2019-01-08T00:11:09.684Z,79.70
2019-01-08T00:13:40.274Z,74.07
2019-01-08T00:16:11.289Z,78.87
2019-01-08T00:18:41.956Z,72.40
2019-01-08T00:21:12.574Z,70.53
2019-01-08T00:23:43.434Z,74.23
2019-01-08T00:26:14.129Z,66.50
2019-01-08T00:28:44.799Z,68.93
2019-01-08T00:31:15.519Z,77.63
2019-01-08T00:33:46.174Z,81.47
2019-01-08T00:36:16.709Z,78.17
2019-01-08T00:38:47.414Z,68.87
2019-01-08T00:41:18.213Z,71.20
2019-01-08T00:43:48.689Z,77.70
2019-01-08T00:46:19.494Z,76.80
2019-01-08T00:48:50.189Z,76.50
2019-01-08T00:51:20.959Z,71.70
2019-01-08T00:53:51.674Z,78.10
2019-01-08T00:56:22.190Z,80.77
2019-01-08T00:58:52.914Z,79.93
2019-01-08T01:01:23.594Z,76.43
2019-01-08T01:03:54.258Z,80.57
2019-01-08T01:07:01.275Z,88.87
2019-01-08T01:09:32.150Z,76.57
2019-01-08T01:12:03.125Z,79.57
2019-01-08T01:14:34.254Z,80.87
2019-01-08T01:17:05.034Z,77.77
2019-01-08T01:19:35.944Z,80.43
2019-01-08T01:22:06.921Z,80.10
2019-01-08T01:24:37.760Z,81.27
2019-01-08T01:27:08.624Z,84.67
2019-01-08T01:29:39.457Z,81.33
2019-01-08T01:32:10.099Z,86.30
2019-01-08T01:34:40.751Z,82.97
2019-01-08T01:37:11.535Z,90.83
2019-01-08T01:39:42.128Z,84.63
2019-01-08T01:42:12.754Z,91.07
2019-01-08T01:44:43.684Z,90.13
2019-01-08T01:47:14.274Z,88.90
2019-01-08T01:49:45.574Z,85.80
2019-01-08T01:52:16.215Z,89.77
2019-01-08T01:54:46.807Z,93.83
2019-01-08T01:57:17.374Z,96.07
2019-01-08T01:59:47.989Z,95.07
2019-01-08T02:02:18.495Z,100.17
2019-01-08T02:04:49.724Z,99.87
2019-01-08T02:07:20.422Z,102.73
2019-01-08T02:09:50.975Z,103.50
2019-01-08T02:12:21.537Z,94.20
2019-01-08T02:14:52.374Z,87.23
2019-01-08T02:17:23.064Z,85.50
2019-01-08T02:19:53.659Z,82.67
2019-01-08T02:22:24.299Z,81.77
2019-01-08T02:24:55.161Z,81.57
2019-01-08T02:27:25.918Z,79.53
2019-01-08T02:29:56.529Z,79.93
2019-01-08T02:32:27.221Z,81.43
2019-01-08T02:34:58.182Z,78.87
2019-01-08T02:37:28.738Z,79.73
2019-01-08T02:39:59.304Z,85.27
2019-01-08T02:42:30.122Z,86.07
2019-01-08T02:45:00.701Z,85.03
2019-01-08T02:47:31.264Z,83.07
2019-01-08T02:50:02.005Z,85.60
2019-01-08T02:52:32.664Z,88.30
2019-01-08T02:55:03.174Z,86.97
2019-01-08T02:57:34.124Z,90.30
2019-01-08T03:00:04.874Z,89.80
2019-01-08T03:02:35.429Z,89.07
2019-01-08T03:05:06.019Z,89.10
2019-01-08T03:07:36.569Z,91.83
2019-01-08T03:10:07.524Z,87.53
2019-01-08T03:12:38.429Z,93.30
2019-01-08T03:15:08.949Z,93.13
2019-01-08T03:17:40.234Z,89.50
2019-01-08T03:20:11.059Z,89.27
2019-01-08T03:22:41.911Z,90.13
2019-01-08T03:25:12.814Z,90.73
2019-01-08T03:27:43.374Z,88.43
2019-01-08T03:30:13.838Z,91.83
2019-01-08T03:32:44.469Z,86.30
2019-01-08T03:35:15.034Z,86.30
2019-01-08T03:37:45.539Z,88.60
2019-01-08T03:40:16.264Z,92.33
2019-01-08T03:42:46.799Z,85.20
2019-01-08T03:45:17.394Z,88.37
2019-01-08T03:47:48.204Z,87.57
2019-01-08T03:50:18.744Z,89.97
2019-01-08T03:52:49.284Z,87.10
2019-01-08T03:55:20.049Z,90.07
2019-01-08T03:57:50.479Z,92.60
2019-01-08T04:00:21.069Z,91.10
2019-01-08T04:02:51.660Z,88.97
2019-01-08T04:05:22.400Z,87.70
2019-01-08T04:07:53.063Z,87.03
2019-01-08T04:10:23.844Z,87.80
2019-01-08T04:12:54.404Z,83.60
2019-01-08T04:15:25.033Z,83.50
2019-01-08T04:17:55.613Z,81.23
2019-01-08T04:20:26.036Z,79.53
2019-01-08T04:22:56.634Z,76.77
2019-01-08T04:25:27.344Z,76.47
2019-01-08T04:27:58.050Z,75.80
2019-01-08T04:30:28.669Z,74.60
2019-01-08T04:32:59.485Z,76.00
2019-01-08T04:35:30.029Z,79.10
2019-01-08T04:38:00.573Z,76.40
2019-01-08T04:40:31.313Z,85.00
2019-01-08T04:43:01.909Z,86.53
2019-01-08T04:45:40.224Z,87.20
2019-01-08T04:48:10.864Z,89.30
2019-01-08T04:50:41.418Z,92.57
2019-01-08T04:53:12.026Z,94.30
2019-01-08T04:55:42.584Z,92.93
2019-01-08T04:58:13.213Z,95.07
2019-01-08T05:00:43.794Z,96.40
2019-01-08T05:03:14.315Z,99.63
2019-01-08T05:05:44.853Z,97.03
2019-01-08T05:08:15.416Z,99.40
2019-01-08T05:10:46.022Z,96.77
2019-01-08T05:13:16.599Z,92.33
2019-01-08T05:15:47.369Z,90.47
2019-01-08T05:18:17.949Z,88.33
2019-01-08T05:20:48.470Z,95.77
2019-01-08T05:23:19.069Z,101.30
2019-01-08T05:25:49.619Z,100.77
2019-01-08T05:28:20.120Z,96.87
2019-01-08T05:30:50.684Z,93.23
2019-01-08T05:33:21.284Z,93.70
2019-01-08T05:35:52.004Z,94.70
2019-01-08T05:38:22.629Z,97.90
2019-01-08T05:40:53.539Z,101.67
2019-01-08T05:43:24.479Z,99.83
2019-01-08T05:45:54.979Z,104.13
2019-01-08T05:48:25.715Z,103.77
2019-01-08T05:50:56.318Z,98.87
2019-01-08T05:53:26.839Z,102.50
2019-01-08T05:55:57.493Z,97.93
2019-01-08T05:58:28.099Z,101.40
2019-01-08T06:00:58.729Z,97.23
2019-01-08T06:03:29.675Z,94.57
2019-01-08T06:06:00.221Z,93.60
2019-01-08T06:08:30.729Z,88.10
2019-01-08T06:11:01.484Z,87.33
2019-01-08T06:13:32.054Z,86.33
2019-01-08T06:16:02.610Z,79.97
2019-01-08T06:18:33.300Z,81.70
2019-01-08T06:21:03.864Z,82.33
2019-01-08T06:23:34.575Z,83.90
2019-01-08T06:26:05.404Z,78.40
2019-01-08T06:28:36.175Z,83.50
2019-01-08T06:31:06.769Z,77.00
2019-01-08T06:33:37.529Z,75.00
2019-01-08T06:36:08.050Z,71.40
2019-01-08T06:38:38.649Z,70.40
2019-01-08T06:41:09.309Z,68.27
2019-01-08T06:43:39.839Z,69.70
2019-01-08T06:46:10.530Z,70.00
2019-01-08T06:48:41.114Z,68.23
2019-01-08T06:51:11.674Z,66.80
2019-01-08T06:53:42.224Z,66.90
2019-01-08T06:56:14.621Z,67.23
2019-01-08T06:58:45.074Z,64.93
2019-01-08T07:01:15.634Z,64.97
2019-01-08T07:03:46.492Z,67.10
2019-01-08T07:06:16.959Z,66.07
2019-01-08T07:08:47.644Z,65.47
2019-01-08T07:11:18.529Z,69.30
2019-01-08T07:13:49.209Z,63.37
2019-01-08T07:16:19.849Z,68.03
2019-01-08T07:18:50.539Z,64.53
2019-01-08T07:21:21.039Z,64.07
2019-01-08T07:23:51.574Z,65.90
2019-01-08T07:26:23.781Z,66.93
2019-01-08T07:28:54.719Z,67.07
2019-01-08T07:31:25.504Z,65.77
2019-01-08T07:33:57.249Z,65.77
2019-01-08T07:36:27.864Z,66.30
2019-01-08T07:38:58.304Z,66.80
2019-01-08T07:41:29.279Z,70.07
2019-01-08T07:43:59.939Z,68.67
2019-01-08T07:46:30.474Z,65.17
2019-01-08T07:49:01.190Z,68.27
2019-01-08T07:51:31.849Z,67.00
2019-01-08T07:54:02.439Z,70.33
2019-01-08T07:56:33.221Z,71.87
2019-01-08T07:59:03.829Z,74.60
2019-01-08T08:01:34.604Z,71.67
2019-01-08T08:04:05.454Z,69.40
2019-01-08T08:06:36.104Z,65.07
2019-01-08T08:09:08.021Z,65.53
2019-01-08T08:11:38.704Z,77.53
2019-01-08T08:14:09.477Z,78.57
2019-01-08T08:16:39.990Z,84.07
2019-01-08T08:19:10.624Z,82.10
2019-01-08T08:21:41.273Z,78.67
2019-01-08T08:24:11.699Z,86.00
2019-01-08T08:26:42.309Z,76.33
2019-01-08T08:29:13.134Z,77.93
2019-01-08T08:31:43.681Z,78.50
2019-01-08T08:34:14.283Z,80.53
2019-01-08T08:36:44.859Z,85.10
2019-01-08T08:39:15.464Z,83.17
2019-01-08T08:41:45.997Z,81.53
2019-01-08T08:44:16.630Z,79.67
2019-01-08T08:46:47.199Z,81.77
2019-01-08T08:49:17.789Z,84.77
2019-01-08T08:51:48.394Z,87.87
2019-01-08T08:54:19.059Z,86.00
2019-01-08T08:56:49.609Z,92.53
2019-01-08T08:59:20.474Z,85.80
2019-01-08T09:01:51.087Z,84.10
2019-01-08T09:04:21.639Z,85.17
2019-01-08T09:06:52.377Z,91.33
2019-01-08T09:09:22.975Z,91.33
2019-01-08T09:11:53.494Z,94.90
2019-01-08T09:14:24.154Z,92.33
2019-01-08T09:16:54.659Z,94.27
2019-01-08T09:19:25.149Z,98.27
2019-01-08T09:21:55.924Z,93.83
2019-01-08T09:24:26.454Z,100.27
2019-01-08T09:26:57.114Z,101.20
2019-01-08T09:29:27.819Z,99.63
2019-01-08T09:31:58.629Z,103.37
2019-01-08T09:34:29.194Z,105.67
2019-01-08T09:36:59.855Z,100.73
2019-01-08T09:39:30.501Z,97.70
2019-01-08T09:42:01.149Z,97.67
2019-01-08T09:44:31.819Z,94.70
2019-01-08T09:47:02.293Z,94.73
2019-01-08T09:49:32.774Z,99.47
2019-01-08T09:52:03.601Z,98.33
2019-01-08T09:54:34.239Z,95.03
2019-01-08T09:57:04.689Z,99.33
2019-01-08T09:59:35.651Z,100.60
2019-01-08T10:02:06.374Z,105.13
2019-01-08T10:04:37.069Z,98.27
2019-01-08T10:07:07.739Z,103.03
2019-01-08T10:09:38.184Z,99.77
2019-01-08T10:12:08.754Z,98.63
2019-01-08T10:14:39.344Z,96.23
2019-01-08T10:17:09.914Z,95.00
2019-01-08T10:19:40.478Z,98.53
2019-01-08T10:22:11.198Z,94.37
2019-01-08T10:24:41.774Z,93.80
2019-01-08T10:27:12.294Z,94.70
2019-01-08T10:29:42.959Z,94.53
2019-01-08T10:32:13.689Z,92.40
2019-01-08T10:34:44.284Z,92.47
2019-01-08T10:37:15.121Z,89.20
2019-01-08T10:39:45.703Z,86.63
2019-01-08T10:42:16.317Z,89.17
2019-01-08T10:44:47.006Z,93.00
2019-01-08T10:47:17.629Z,82.97
2019-01-08T10:49:48.492Z,85.73
2019-01-08T10:52:19.234Z,79.87
2019-01-08T10:54:49.844Z,83.97
2019-01-08T10:57:20.804Z,84.90
2019-01-08T10:59:51.599Z,82.77
2019-01-08T11:02:22.409Z,80.07
2019-01-08T11:04:52.975Z,78.57
2019-01-08T11:07:25.344Z,81.70
2019-01-08T11:09:56.240Z,86.07
2019-01-08T11:12:27.029Z,80.97
2019-01-08T11:14:57.859Z,81.90
2019-01-08T11:17:28.419Z,86.77
2019-01-08T11:19:59.579Z,83.00
2019-01-08T11:22:30.530Z,88.80
2019-01-08T11:25:01.352Z,86.57
2019-01-08T11:27:32.083Z,89.43
2019-01-08T11:30:02.705Z,87.00
2019-01-08T11:32:34.169Z,92.53
2019-01-08T11:35:05.311Z,87.70
2019-01-08T11:37:36.179Z,91.20
2019-01-08T11:40:07.368Z,88.67
2019-01-08T11:42:38.239Z,99.13
2019-01-08T11:45:10.374Z,91.70
2019-01-08T11:47:40.994Z,97.17
2019-01-08T11:50:11.619Z,96.03
2019-01-08T11:52:42.499Z,102.60
2019-01-08T11:55:13.139Z,91.90
2019-01-08T11:57:43.790Z,91.17
2019-01-08T12:00:15.914Z,93.07
2019-01-08T12:02:47.917Z,94.60
2019-01-08T12:05:18.801Z,92.60
2019-01-08T12:07:49.414Z,98.83
2019-01-08T12:10:20.180Z,101.83
2019-01-08T12:12:51.578Z,105.87
2019-01-08T12:15:22.489Z,102.53
2019-01-08T12:17:53.029Z,107.37
2019-01-08T12:20:23.714Z,106.07
2019-01-08T12:22:54.509Z,106.07
2019-01-08T12:25:25.129Z,109.73
2019-01-08T12:27:55.699Z,108.00
2019-01-08T12:30:26.634Z,112.93
2019-01-08T12:32:57.484Z,107.20
2019-01-08T12:35:28.076Z,108.17
2019-01-08T12:37:59.507Z,112.87
2019-01-08T12:40:30.059Z,110.30
2019-01-08T12:43:00.984Z,104.77
2019-01-08T12:45:31.634Z,106.77
2019-01-08T12:48:02.339Z,102.27
2019-01-08T12:50:35.679Z,105.43
2019-01-08T12:53:06.585Z,103.73
2019-01-08T12:55:37.364Z,108.33
2019-01-08T12:58:08.174Z,112.43
2019-01-08T13:00:39.194Z,110.10
2019-01-08T13:03:10.009Z,104.23
2019-01-08T13:05:41.029Z,102.10
2019-01-08T13:08:11.795Z,108.00
2019-01-08T13:10:42.420Z,106.37
2019-01-08T13:13:13.380Z,110.43
2019-01-08T13:15:44.213Z,102.47
2019-01-08T13:18:15.439Z,108.07
2019-01-08T13:20:46.334Z,106.87
2019-01-08T13:23:17.064Z,103.70
2019-01-08T13:25:48.099Z,97.37
2019-01-08T13:28:18.869Z,108.13
2019-01-08T13:30:55.699Z,105.80
2019-01-08T13:33:30.369Z,102.93
2019-01-08T13:36:01.548Z,107.00
2019-01-08T13:38:32.503Z,106.17
2019-01-08T13:41:03.724Z,105.23
2019-01-08T13:43:34.554Z,110.27
2019-01-08T13:46:05.085Z,107.77
2019-01-08T13:48:36.074Z,107.97
2019-01-08T13:51:07.054Z,110.03
2019-01-08T13:53:37.979Z,112.50
2019-01-08T13:56:09.165Z,109.23
2019-01-08T13:58:39.949Z,112.23
2019-01-08T14:01:10.791Z,108.00
2019-01-08T14:03:41.744Z,101.23
2019-01-08T14:06:12.724Z,107.93
2019-01-08T14:08:43.343Z,102.93
2019-01-08T14:11:14.253Z,107.60
2019-01-08T14:13:45.170Z,108.60
2019-01-08T14:16:16.289Z,109.30
2019-01-08T14:18:47.489Z,111.50
2019-01-08T14:21:19.099Z,109.73
2019-01-08T14:23:50.243Z,114.83
2019-01-08T14:26:21.313Z,115.90
2019-01-08T14:28:51.969Z,114.57
2019-01-08T14:31:23.839Z,114.93
2019-01-08T14:33:54.779Z,110.90
2019-01-08T14:36:26.274Z,112.60
2019-01-08T14:38:57.169Z,107.50
2019-01-08T14:41:28.069Z,109.77
2019-01-08T14:43:58.654Z,108.27
2019-01-08T14:46:29.209Z,110.23
2019-01-08T14:49:00.439Z,110.07
2019-01-08T14:51:31.184Z,115.87
2019-01-08T14:54:02.024Z,116.93
2019-01-08T14:56:33.184Z,113.83
2019-01-08T14:59:05.145Z,116.93
2019-01-08T15:01:35.716Z,115.77
2019-01-08T15:04:06.769Z,113.43
2019-01-08T15:06:37.629Z,118.33
2019-01-08T15:09:09.395Z,118.00
2019-01-08T15:11:40.959Z,118.40
2019-01-08T15:14:11.705Z,110.07
2019-01-08T15:16:42.584Z,102.97
2019-01-08T15:19:13.409Z,117.27
2019-01-08T15:21:44.435Z,119.33
2019-01-08T15:24:15.290Z,118.03
2019-01-08T15:26:46.314Z,128.17
2019-01-08T15:29:17.301Z,119.73
2019-01-08T15:31:48.134Z,149.12
2019-01-08T15:34:19.099Z,119.93
2019-01-08T15:36:50.050Z,114.57
2019-01-08T15:39:20.721Z,116.37
2019-01-08T15:41:51.789Z,113.13
2019-01-08T15:44:22.624Z,105.70
2019-01-08T15:46:53.264Z,110.00
2019-01-08T15:49:24.014Z,113.97
2019-01-08T15:51:54.594Z,116.20
2019-01-08T15:54:25.204Z,110.40
2019-01-08T15:56:55.934Z,101.73
2019-01-08T15:59:26.533Z,94.00
2019-01-08T16:01:57.079Z,88.80
2019-01-08T16:04:27.977Z,86.90
2019-01-08T16:06:59.479Z,102.80
2019-01-08T16:09:30.579Z,103.93
2019-01-08T16:12:01.589Z,109.60
2019-01-08T16:14:32.063Z,104.33
2019-01-08T16:17:03.143Z,110.43
2019-01-08T16:19:34.409Z,111.73
2019-01-08T16:22:05.314Z,117.30
2019-01-08T16:24:36.054Z,104.27
2019-01-08T16:27:07.394Z,104.03
2019-01-08T16:29:39.204Z,105.83
2019-01-08T16:32:10.189Z,110.63
2019-01-08T16:34:41.081Z,116.97
2019-01-08T16:37:11.724Z,112.60
2019-01-08T16:39:42.319Z,112.50
2019-01-08T16:42:13.123Z,117.70
2019-01-08T16:44:43.759Z,111.33
2019-01-08T16:47:15.334Z,100.30
2019-01-08T16:49:46.239Z,108.07
2019-01-08T16:52:16.989Z,111.27
2019-01-08T16:54:47.714Z,113.73
2019-01-08T16:57:18.794Z,116.73
2019-01-08T16:59:49.675Z,110.53
2019-01-08T17:02:20.439Z,110.17
2019-01-08T17:04:51.379Z,112.03
2019-01-08T17:07:21.899Z,114.10
2019-01-08T17:09:53.828Z,103.60
2019-01-08T17:12:24.834Z,98.97
2019-01-08T17:14:55.392Z,109.73
2019-01-08T17:17:25.999Z,106.93
2019-01-08T17:19:56.650Z,105.47
2019-01-08T17:22:27.514Z,103.40
2019-01-08T17:24:58.434Z,102.63
2019-01-08T17:27:29.134Z,102.27
2019-01-08T17:29:59.886Z,102.17
2019-01-08T17:32:30.984Z,91.17
2019-01-08T17:35:01.698Z,96.73
2019-01-08T17:37:32.809Z,86.37
2019-01-08T17:40:03.514Z,93.53
2019-01-08T17:42:34.874Z,89.10
2019-01-08T17:45:05.769Z,80.63
2019-01-08T17:47:36.374Z,69.27
2019-01-08T17:50:07.577Z,85.20
2019-01-08T17:52:38.254Z,81.67
2019-01-08T17:55:09.034Z,88.80
2019-01-08T17:57:40.264Z,88.43
2019-01-08T18:00:12.289Z,90.40
2019-01-08T18:02:46.820Z,90.03
2019-01-08T18:05:17.584Z,89.37
2019-01-08T18:07:48.604Z,91.67
2019-01-08T18:10:19.674Z,91.90
2019-01-08T18:12:50.940Z,99.33
2019-01-08T18:15:21.804Z,98.07
2019-01-08T18:17:52.662Z,94.43
2019-01-08T18:20:23.599Z,95.67
2019-01-08T18:22:54.314Z,100.77
2019-01-08T18:25:25.114Z,90.73
2019-01-08T18:27:55.774Z,94.20
2019-01-08T18:30:26.434Z,88.80
2019-01-08T18:32:57.359Z,86.13
2019-01-08T18:35:28.039Z,87.27
2019-01-08T18:37:58.756Z,90.17
2019-01-08T18:40:29.669Z,94.90
2019-01-08T18:43:00.444Z,89.87
2019-01-08T18:45:31.343Z,89.23
2019-01-08T18:48:02.464Z,87.27
2019-01-08T18:50:34.399Z,88.40
2019-01-08T18:53:05.295Z,91.87
2019-01-08T18:55:36.609Z,91.40
2019-01-08T18:58:07.678Z,92.80
2019-01-08T19:00:38.755Z,95.73
2019-01-08T19:03:10.015Z,82.70
2019-01-08T19:05:41.189Z,87.20
2019-01-08T19:08:12.283Z,81.50
2019-01-08T19:10:43.594Z,84.97
2019-01-08T19:13:14.764Z,84.23
2019-01-08T19:15:45.320Z,83.03
2019-01-08T19:18:16.699Z,84.43
2019-01-08T19:20:47.364Z,91.17
2019-01-08T19:23:18.409Z,93.67
2019-01-08T19:25:49.519Z,89.17
2019-01-08T19:28:20.554Z,83.77
2019-01-08T19:30:51.306Z,84.63
2019-01-08T19:33:22.254Z,82.73
2019-01-08T19:35:53.395Z,85.57
2019-01-08T19:38:24.059Z,84.23
2019-01-08T19:40:55.365Z,83.97
2019-01-08T19:43:26.564Z,84.37
2019-01-08T19:45:58.242Z,86.73
2019-01-08T19:48:29.329Z,81.30
2019-01-08T19:51:00.124Z,84.33
2019-01-08T19:53:31.069Z,92.90
2019-01-08T19:56:02.324Z,84.47
2019-01-08T19:58:33.484Z,85.13
2019-01-08T20:01:04.470Z,85.90
2019-01-08T20:03:37.004Z,84.30
2019-01-08T20:06:08.060Z,81.53
2019-01-08T20:08:38.886Z,81.70
2019-01-08T20:11:10.317Z,76.40
2019-01-08T20:13:41.845Z,82.60
2019-01-08T20:16:12.889Z,84.73
2019-01-08T20:18:45.257Z,89.47
2019-01-08T20:21:16.419Z,86.90
2019-01-08T20:23:47.649Z,86.17
2019-01-08T20:26:18.374Z,90.63
2019-01-08T20:28:49.106Z,82.60
2019-01-08T20:31:19.844Z,86.07
2019-01-08T20:33:50.739Z,83.27
2019-01-08T20:36:21.715Z,83.70
2019-01-08T20:38:52.947Z,85.60
2019-01-08T20:41:24.501Z,81.97
2019-01-08T20:43:55.204Z,85.67
2019-01-08T20:46:26.159Z,82.70
2019-01-08T20:48:56.960Z,83.20
2019-01-08T20:51:27.585Z,80.20
2019-01-08T20:53:58.815Z,81.30
2019-01-08T20:56:29.661Z,81.93
2019-01-08T20:59:00.439Z,81.10
2019-01-08T21:01:59.400Z,86.43
2019-01-08T21:04:57.449Z,82.93
2019-01-08T21:07:58.936Z,85.40
2019-01-08T21:11:06.091Z,81.83
2019-01-08T21:14:11.504Z,77.37
2019-01-08T21:17:06.675Z,75.43
2019-01-08T21:20:02.890Z,74.47
2019-01-08T21:22:58.690Z,75.10
2019-01-08T21:25:30.333Z,70.97
2019-01-08T21:28:01.112Z,74.70
2019-01-08T21:30:32.061Z,67.90
2019-01-08T21:33:03.425Z,63.87
2019-01-08T21:35:34.249Z,63.97
2019-01-08T21:38:04.970Z,62.03
2019-01-08T21:40:35.975Z,63.10
2019-01-08T21:43:06.626Z,63.70
2019-01-08T21:45:37.421Z,59.83
2019-01-08T21:48:08.174Z,59.27
2019-01-08T21:50:39.100Z,64.63
2019-01-08T21:53:09.875Z,63.40
2019-01-08T21:55:41.044Z,61.47
2019-01-08T21:58:11.800Z,58.60
2019-01-08T22:00:42.689Z,61.70
2019-01-08T22:03:13.567Z,60.00
2019-01-08T22:05:44.215Z,59.17
2019-01-08T22:08:15.121Z,60.17
2019-01-08T22:10:46.085Z,61.57
2019-01-08T22:13:16.830Z,58.47
2019-01-08T22:15:47.545Z,61.03
2019-01-08T22:18:18.439Z,56.80
2019-01-08T22:20:49.129Z,58.93
2019-01-08T22:23:19.975Z,62.60
2019-01-08T22:25:50.915Z,63.83
2019-01-08T22:28:21.819Z,58.83
2019-01-08T22:30:52.540Z,56.20
2019-01-08T22:33:23.684Z,58.30
2019-01-08T22:35:54.545Z,58.40
2019-01-08T22:38:25.390Z,59.17
2019-01-08T22:40:56.123Z,63.50
2019-01-08T22:43:26.794Z,59.20
2019-01-08T22:45:57.544Z,90.87
2019-01-08T22:48:28.594Z,66.20
2019-01-08T22:50:59.304Z,63.33
2019-01-08T22:53:29.980Z,59.17
2019-01-08T22:56:00.858Z,64.17
2019-01-08T22:58:31.524Z,64.30
2019-01-08T23:01:14.094Z,56.33
2019-01-08T23:03:44.684Z,57.43
2019-01-08T23:06:15.324Z,58.63
2019-01-08T23:08:45.916Z,56.80
2019-01-08T23:11:16.480Z,56.33
2019-01-08T23:13:47.140Z,58.93
2019-01-08T23:16:17.754Z,60.53
2019-01-08T23:18:48.419Z,58.77
2019-01-08T23:21:18.949Z,62.00
2019-01-08T23:23:49.779Z,59.07
2019-01-08T23:26:20.396Z,58.50
2019-01-08T23:28:50.944Z,59.33
2019-01-08T23:31:21.800Z,58.40
2019-01-08T23:33:52.339Z,59.03
2019-01-08T23:36:22.941Z,57.87
2019-01-08T23:38:53.835Z,55.73
2019-01-08T23:41:24.364Z,55.87
2019-01-08T23:43:54.929Z,58.20
2019-01-08T23:46:25.539Z,58.10
2019-01-08T23:48:56.104Z,54.63
2019-01-08T23:51:26.669Z,56.07
2019-01-08T23:53:58.614Z,52.70
2019-01-08T23:56:31.420Z,52.10
2019-01-08T23:59:02.060Z,52.67
